KONPKCVO

Guest
Details From KONP - Newport Muni
To KCVO - CORVALLIS MUNI
Flight Number -
Tags decoded
Created
Modified
Stats Distance 61 nm / 113 km
Max Altitude 0 ft / 0 m
Waypoints 3
Social Downloads 2
Likes 0
Share

Download

Looking for another format? Having issues loading an existing format? Contact us
Advertisement - Login to hide

Notes

Requested: KONP MAGOT KCVO

Route

KONP MAGOT KCVO

ID Type Via Altitude (ft/m) Position (lat/lon) Dist (leg/tot) Name
O KONP APT - 0 / 0 44.58078 / -124.05750 - / 0 nm Newport Muni
MAGOT FIX - 0 / 0 44.67363 / -123.01249 45 / 45 nm
O KCVO APT - 0 / 0 44.49768 / -123.28855 15 / 60 nm CORVALLIS MUNI

Altitude Profile

Advertisement - Login to hide

KONP

Details ICAO KONP (ONP)
Name Newport Muni
Region United States
Timezone America/Los_Angeles (UTC-7.0)
Stats Elevation 160 ft / 49 m (AMSL)
Location 44.580700° -124.058000°
Runways 2
Magnetic Variation 14.460° E

METAR

KONP 141515Z AUTO 00000KT 10SM CLR 12/10 A3024 RMK AO2

Decode

TAF

KONP 141124Z 1412/1512 VRB04KT P6SM SKC FM141800 23006KT P6SM SCT025 BKN035 FM142300 28006KT P6SM -SHRA BKN050

Decode

Departure Runways

ID Width Length Bearing (true/mag) Surface Threshold Overrun Markings Lighting
02 75 ft / 23 m 3,001 ft / 915 m 37.23° / 22.77° ASPHALT 0 ft / 0 m 0 ft / 0 m VISUAL EDGE THRESHOLD
16 100 ft / 30 m 5,401 ft / 1,646 m 177.32° / 162.86° ASPHALT 0 ft / 0 m 0 ft / 0 m PREC-APP EDGE THRESHOLD MALSR
20 75 ft / 23 m 3,001 ft / 915 m 217.24° / 202.78° ASPHALT 0 ft / 0 m 404 ft / 123 m VISUAL EDGE THRESHOLD
34 100 ft / 30 m 5,401 ft / 1,646 m 357.32° / 342.86° ASPHALT 299 ft / 91 m 0 ft / 0 m PREC-APP EDGE THRESHOLD REIL-OMNI

KCVO

Details ICAO KCVO (CVO)
Name Corvallis Muni
Region United States
Timezone America/Los_Angeles (UTC-7.0)
Stats Elevation 249 ft / 76 m (AMSL)
Location 44.497700° -123.289000°
Runways 2
Magnetic Variation 14.333° E

METAR

KCVO 141456Z AUTO 20004KT 10SM CLR 10/06 A3023 RMK AO2 SLP235 T01000056 50005

Decode

TAF

Not found

Destination Runways

ID Width Length Bearing (true/mag) Surface Threshold Overrun Markings Lighting
09 75 ft / 23 m 3,538 ft / 1,079 m 112.05° / 97.72° ASPHALT 0 ft / 0 m 1,417 ft / 432 m VISUAL EDGE THRESHOLD
17 150 ft / 46 m 5,905 ft / 1,800 m 186.94° / 172.61° ASPHALT 0 ft / 0 m 0 ft / 0 m PREC-APP EDGE THRESHOLD MALSR
27 75 ft / 23 m 3,538 ft / 1,079 m 292.06° / 277.73° ASPHALT 200 ft / 61 m 0 ft / 0 m VISUAL EDGE THRESHOLD
35 150 ft / 46 m 5,905 ft / 1,800 m 6.94° / 352.61° ASPHALT 0 ft / 0 m 197 ft / 60 m APP EDGE THRESHOLD REIL-OMNI

Approach Navaids

Runway Type Ident Frequency Range Bearing (true/mag) Slope Elevation
17 LOC-ILS ICVO 111.90 MHz 18 nm / 33 km 186.94° / 172.61 ° - 249 ft / 76 m (AMSL)
17 GS ICVO 111.90 MHz 10 nm / 19 km 186.94° / 172.61 ° 3.00° 249 ft / 76 m (AMSL)
17 OM OM - - 187.16° / 172.83 ° - 246 ft / 75 m (AMSL)
17 MM MM - - 187.16° / 172.83 ° - 246 ft / 75 m (AMSL)

Popular Alternatives